createdAt,value
2019-04-21T00:01:57.779Z,55.45
2019-04-21T00:04:38.062Z,55.35
2019-04-21T00:07:34.094Z,55.47
2019-04-21T00:09:53.340Z,55.78
2019-04-21T00:12:19.086Z,55.41
2019-04-21T00:14:44.484Z,55.73
2019-04-21T00:17:10.984Z,55.67
2019-04-21T00:20:09.140Z,55.93
2019-04-21T00:22:41.716Z,55.72
2019-04-21T00:25:13.979Z,55.85
2019-04-21T00:27:47.431Z,56.32
2019-04-21T00:30:21.433Z,56.07
2019-04-21T00:32:41.952Z,56.79
2019-04-21T00:35:08.559Z,57.19
2019-04-21T00:37:54.614Z,57.11
2019-04-21T00:40:27.759Z,57.58
2019-04-21T00:42:57.235Z,57.91
2019-04-21T00:45:20.591Z,58.21
2019-04-21T00:48:00.433Z,58.10
2019-04-21T00:50:40.694Z,58.07
2019-04-21T00:53:29.667Z,58.60
2019-04-21T00:58:22.479Z,58.81
2019-04-21T01:00:51.178Z,58.44
2019-04-21T01:03:22.505Z,58.91
2019-04-21T01:05:57.297Z,59.19
2019-04-21T01:08:21.983Z,59.25
2019-04-21T01:10:45.251Z,59.45
2019-04-21T01:13:27.749Z,59.11
2019-04-21T01:15:53.336Z,59.65
2019-04-21T01:18:27.150Z,59.33
2019-04-21T01:20:35.306Z,59.64
2019-04-21T01:23:04.496Z,59.88
2019-04-21T01:25:41.503Z,60.03
2019-04-21T01:28:18.955Z,60.15
2019-04-21T01:30:58.975Z,60.47
2019-04-21T01:33:34.996Z,60.53
2019-04-21T01:36:00.936Z,60.17
2019-04-21T01:38:35.747Z,59.47
2019-04-21T01:41:08.636Z,59.46
2019-04-21T01:43:33.912Z,60.28
2019-04-21T01:45:59.267Z,60.76
2019-04-21T01:48:30.703Z,61.19
2019-04-21T01:51:05.382Z,61.38
2019-04-21T01:54:07.654Z,61.62
2019-04-21T01:56:38.869Z,61.41
2019-04-21T01:59:00.855Z,62.50
2019-04-21T02:01:42.315Z,63.17
2019-04-21T02:04:16.716Z,63.69
2019-04-21T02:06:45.617Z,63.33
2019-04-21T02:09:10.107Z,63.24
2019-04-21T02:11:50.919Z,62.73
2019-04-21T02:14:19.622Z,62.67
2019-04-21T02:16:49.733Z,62.57
2019-04-21T02:19:13.966Z,62.99
2019-04-21T02:21:45.127Z,63.19
2019-04-21T02:24:31.874Z,63.08
2019-04-21T02:26:57.282Z,63.67
2019-04-21T02:29:26.709Z,63.41
2019-04-21T02:32:11.802Z,63.33
2019-04-21T02:34:47.103Z,63.36
2019-04-21T02:37:28.509Z,64.08
2019-04-21T02:39:42.874Z,64.21
2019-04-21T02:44:46.783Z,64.26
2019-04-21T02:47:14.190Z,64.33
2019-04-21T03:00:04.129Z,64.13
2019-04-21T03:02:43.405Z,64.13
2019-04-21T03:05:28.463Z,64.38
2019-04-21T03:07:55.498Z,64.31
2019-04-21T03:10:30.761Z,64.34
2019-04-21T03:13:01.371Z,64.57
2019-04-21T03:15:29.188Z,64.30
2019-04-21T03:17:59.572Z,64.42
2019-04-21T03:23:05.330Z,64.83
2019-04-21T03:25:41.896Z,65.04
2019-04-21T03:31:01.851Z,65.39
2019-04-21T03:38:13.033Z,66.71
2019-04-21T03:40:32.293Z,66.12
2019-04-21T03:43:07.270Z,65.87
2019-04-21T03:45:39.176Z,65.75
2019-04-21T03:48:13.664Z,65.80
2019-04-21T03:53:09.561Z,66.17
2019-04-21T04:01:05.574Z,65.91
2019-04-21T04:04:06.682Z,66.38
2019-04-21T04:07:05.974Z,67.15
2019-04-21T04:09:44.431Z,66.93
2019-04-21T04:14:44.401Z,66.07
2019-04-21T04:17:11.954Z,65.91
2019-04-21T04:19:40.319Z,65.65
2019-04-21T04:22:20.971Z,65.26
2019-04-21T04:27:05.075Z,65.60
2019-04-21T04:29:31.428Z,65.22
2019-04-21T04:32:04.922Z,65.48
2019-04-21T04:34:48.470Z,65.55
2019-04-21T04:40:03.653Z,66.11
2019-04-21T04:45:17.620Z,66.68
2019-04-21T04:47:34.966Z,67.00
2019-04-21T04:50:00.760Z,66.38
2019-04-21T04:52:40.161Z,66.24
2019-04-21T04:57:46.470Z,66.58
2019-04-21T05:02:42.359Z,66.52
2019-04-21T05:05:13.897Z,66.70
2019-04-21T05:07:54.865Z,66.63
2019-04-21T05:10:06.763Z,66.42
2019-04-21T05:12:35.911Z,65.96
2019-04-21T05:22:47.323Z,65.79
2019-04-21T05:25:05.676Z,65.44
2019-04-21T05:27:45.282Z,65.18
2019-04-21T05:30:28.633Z,65.14
2019-04-21T05:33:03.893Z,64.95
2019-04-21T05:36:01.885Z,64.06
2019-04-21T05:38:50.261Z,63.85
2019-04-21T05:41:10.080Z,63.26
2019-04-21T05:43:51.645Z,62.83
2019-04-21T05:46:28.463Z,62.92
2019-04-21T05:48:51.913Z,62.54
2019-04-21T05:51:28.804Z,61.79
2019-04-21T05:54:09.101Z,62.12
2019-04-21T05:56:32.207Z,61.45
2019-04-21T05:59:02.351Z,61.14
2019-04-21T06:01:46.427Z,60.14
2019-04-21T06:04:05.429Z,59.62
2019-04-21T06:06:43.582Z,59.24
2019-04-21T06:09:13.105Z,59.16
2019-04-21T06:11:39.296Z,58.66
2019-04-21T06:14:08.339Z,58.06
2019-04-21T06:16:44.099Z,57.67
2019-04-21T06:19:14.508Z,57.41
2019-04-21T06:21:40.444Z,56.39
2019-04-21T06:24:10.095Z,56.44
2019-04-21T06:26:56.264Z,56.24
2019-04-21T06:29:14.995Z,56.17
2019-04-21T06:34:17.292Z,55.84
2019-04-21T06:36:56.640Z,55.98
2019-04-21T06:39:31.785Z,55.82
2019-04-21T06:41:58.882Z,55.68
2019-04-21T06:46:59.409Z,55.17
2019-04-21T06:49:25.153Z,54.98
2019-04-21T06:52:11.421Z,55.07
2019-04-21T06:54:35.639Z,55.06
2019-04-21T06:57:00.808Z,54.16
2019-04-21T06:59:31.921Z,54.08
2019-04-21T07:02:26.437Z,53.32
2019-04-21T07:04:39.566Z,53.30
2019-04-21T07:07:05.102Z,53.20
2019-04-21T07:09:37.931Z,52.82
2019-04-21T07:12:05.830Z,51.87
2019-04-21T07:14:52.757Z,51.97
2019-04-21T07:22:12.706Z,50.35
2019-04-21T07:24:43.339Z,50.14
2019-04-21T07:27:15.543Z,49.87
2019-04-21T07:29:47.743Z,48.78
2019-04-21T07:32:15.324Z,48.71
2019-04-21T07:34:46.165Z,48.28
2019-04-21T07:37:18.529Z,48.00
2019-04-21T07:39:45.263Z,47.60
2019-04-21T07:42:13.435Z,47.04
2019-04-21T07:44:46.098Z,46.92
2019-04-21T07:47:27.134Z,46.50
2019-04-21T07:50:27.384Z,46.31
2019-04-21T07:53:07.035Z,45.82
2019-04-21T07:58:02.639Z,45.46
2019-04-21T08:00:47.878Z,45.13
2019-04-21T08:03:09.188Z,44.42
2019-04-21T08:05:37.795Z,43.99
2019-04-21T08:08:06.488Z,43.26
2019-04-21T08:10:38.120Z,42.85
2019-04-21T08:13:17.343Z,42.33
2019-04-21T08:18:19.046Z,41.76
2019-04-21T08:20:44.888Z,41.23
2019-04-21T08:23:22.170Z,41.48
2019-04-21T08:26:03.284Z,40.62
2019-04-21T08:28:22.537Z,40.14
2019-04-21T08:30:51.997Z,40.61
2019-04-21T08:33:32.529Z,39.17
2019-04-21T08:36:11.329Z,38.65
2019-04-21T08:38:20.378Z,37.92
2019-04-21T08:40:55.880Z,37.48
2019-04-21T08:43:37.286Z,37.30
2019-04-21T08:45:57.241Z,37.14
2019-04-21T08:48:28.607Z,35.79
2019-04-21T08:51:10.402Z,35.07
2019-04-21T08:53:47.628Z,34.42
2019-04-21T08:56:25.458Z,33.74
2019-04-21T08:59:22.196Z,33.61
2019-04-21T09:02:06.290Z,32.87
2019-04-21T09:04:42.832Z,32.92
2019-04-21T09:09:41.198Z,31.84
2019-04-21T09:12:10.985Z,32.61
2019-04-21T09:14:41.898Z,31.74
2019-04-21T09:17:13.339Z,100.00
